Main page
METAR-TAF:

METAR-TAF

Airports :

Yerevan, Armenia

Zvartnots International Airport

latitude: 40-08-50N, longitude: 044-23-45E, elevation: 865 m

Current weather observation

The report was made 38 minutes ago, at 14:00 UTC
Wind 3 kt from the South/Southwest, varying between South and West
Temperature 16°C
Humidity 34%
Pressure 1010 hPa
Visibility 10 km or more
Few clouds at a height of 4600 ft

METAR: UDYZ 221400Z 21003KT 170V280 9999 FEW046 16/00 Q1010 R09/010070 NOSIG

Time: 18:38 (14:38 UTC)

Forecast

The report was made 3 hours and 30 minutes ago, at 11:08 UTC
Forecast valid from 22 at 12 UTC to 23 at 12 UTC
Wind 6 kt from the North/Northeast
Visibility 10 km or more
Scattered clouds at a height of 4000 ft
Broken clouds at a height of 10000 ft
Temporary
from 22 at 12 UTC to 22 at 21 UTC
Wind 16 kt from the East/Northeast

TAF: UDYZ 221108Z 2212/2312 02006KT 9999 SCT040 BKN100 TEMPO 2212/2221 06016KT

Weather observations and forecasts of more than 4000 airports (METAR and TAF reports).

The available stations are represented by yellow and red dots on the map.

Hover mouse over dot to see the name of the station.

Then click to see weather observations and forecasts.

To change the map : click on the green buttons with a black cross to zoom in, on the green button with a dash to zoom out, or on the green arrows for adjacent maps.


METAR-TAF: